createdAt,value
2017-12-10T00:01:00.776Z,61.35
2017-12-10T00:03:28.267Z,61.12
2017-12-10T00:05:55.744Z,61.21
2017-12-10T00:08:23.199Z,60.83
2017-12-10T00:10:50.832Z,61.10
2017-12-10T00:13:18.281Z,61.16
2017-12-10T00:15:45.752Z,61.48
2017-12-10T00:18:13.311Z,61.37
2017-12-10T00:20:40.756Z,61.32
2017-12-10T00:23:08.204Z,61.29
2017-12-10T00:25:35.660Z,61.39
2017-12-10T00:28:03.123Z,61.41
2017-12-10T00:30:30.577Z,61.46
2017-12-10T00:32:58.028Z,61.47
2017-12-10T00:35:25.484Z,61.33
2017-12-10T00:37:52.941Z,61.44
2017-12-10T00:40:20.447Z,61.53
2017-12-10T00:42:47.916Z,61.29
2017-12-10T00:45:15.494Z,61.24
2017-12-10T00:47:42.974Z,61.67
2017-12-10T00:50:10.431Z,61.57
2017-12-10T00:52:37.889Z,61.51
2017-12-10T00:55:05.380Z,61.36
2017-12-10T00:57:32.834Z,61.44
2017-12-10T01:00:00.298Z,61.24
2017-12-10T01:02:27.763Z,61.16
2017-12-10T01:04:55.226Z,61.27
2017-12-10T01:07:22.675Z,61.69
2017-12-10T01:09:50.132Z,61.77
2017-12-10T01:12:17.620Z,61.51
2017-12-10T01:14:45.071Z,61.28
2017-12-10T01:17:12.541Z,61.50
2017-12-10T01:19:39.998Z,61.67
2017-12-10T01:22:07.458Z,61.93
2017-12-10T01:24:34.900Z,62.03
2017-12-10T01:27:02.368Z,62.25
2017-12-10T01:29:29.808Z,62.25
2017-12-10T01:31:57.248Z,62.70
2017-12-10T01:34:24.728Z,62.78
2017-12-10T01:36:52.248Z,62.44
2017-12-10T01:39:19.712Z,62.56
2017-12-10T01:41:47.172Z,62.42
2017-12-10T01:44:14.614Z,62.72
2017-12-10T01:46:42.071Z,62.40
2017-12-10T01:49:09.563Z,62.33
2017-12-10T01:51:36.994Z,62.28
2017-12-10T01:54:04.494Z,62.31
2017-12-10T01:56:32.554Z,61.97
2017-12-10T01:59:00.064Z,62.25
2017-12-10T02:01:27.548Z,62.58
2017-12-10T02:03:54.998Z,62.72
2017-12-10T02:06:22.589Z,62.68
2017-12-10T02:11:23.931Z,62.29
2017-12-10T02:13:51.420Z,62.86
2017-12-10T02:16:18.862Z,62.76
2017-12-10T02:18:46.367Z,62.91
2017-12-10T02:21:13.924Z,63.03
2017-12-10T02:23:41.379Z,62.54
2017-12-10T02:26:08.824Z,62.71
2017-12-10T02:28:36.333Z,62.52
2017-12-10T02:31:03.776Z,62.56
2017-12-10T02:33:31.239Z,62.23
2017-12-10T02:35:58.689Z,61.99
2017-12-10T02:38:26.136Z,62.78
2017-12-10T02:40:53.638Z,62.43
2017-12-10T02:43:21.114Z,62.10
2017-12-10T02:45:48.572Z,61.84
2017-12-10T02:48:16.058Z,61.44
2017-12-10T02:50:43.533Z,61.47
2017-12-10T02:53:11.005Z,61.67
2017-12-10T02:55:38.447Z,61.75
2017-12-10T02:58:05.939Z,62.09
2017-12-10T03:00:33.387Z,62.17
2017-12-10T03:03:01.084Z,62.26
2017-12-10T03:05:28.546Z,62.02
2017-12-10T03:07:55.993Z,61.73
2017-12-10T03:10:23.619Z,61.93
2017-12-10T03:12:51.075Z,61.40
2017-12-10T03:15:18.555Z,61.36
2017-12-10T03:17:46.043Z,60.91
2017-12-10T03:20:13.605Z,60.90
2017-12-10T03:22:41.044Z,60.59
2017-12-10T03:25:08.511Z,59.94
2017-12-10T03:27:35.976Z,60.33
2017-12-10T03:30:03.530Z,60.70
2017-12-10T03:32:31.268Z,60.57
2017-12-10T03:34:58.745Z,60.05
2017-12-10T03:37:26.229Z,60.31
2017-12-10T03:39:53.689Z,59.81
2017-12-10T03:42:21.128Z,59.87
2017-12-10T03:44:48.574Z,59.69
2017-12-10T03:47:16.029Z,59.81
2017-12-10T03:49:43.467Z,59.93
2017-12-10T03:52:10.981Z,59.74
2017-12-10T03:54:38.427Z,60.45
2017-12-10T03:57:05.858Z,60.60
2017-12-10T03:59:33.400Z,60.25
2017-12-10T04:02:00.847Z,60.35
2017-12-10T04:04:28.313Z,60.40
2017-12-10T04:06:55.746Z,60.81
2017-12-10T04:09:23.197Z,60.83
2017-12-10T04:11:50.722Z,61.34
2017-12-10T04:14:18.243Z,61.19
2017-12-10T04:16:45.703Z,61.07
2017-12-10T04:19:13.169Z,61.19
2017-12-10T04:21:40.626Z,61.75
2017-12-10T04:24:08.127Z,61.98
2017-12-10T04:26:35.575Z,61.55
2017-12-10T04:29:03.246Z,61.20
2017-12-10T04:31:30.703Z,61.26
2017-12-10T04:33:58.160Z,61.80
2017-12-10T04:36:26.107Z,62.29
2017-12-10T04:38:53.609Z,62.48
2017-12-10T04:41:21.091Z,62.33
2017-12-10T04:43:48.546Z,62.47
2017-12-10T04:46:16.330Z,62.29
2017-12-10T04:48:43.865Z,62.58
2017-12-10T04:51:11.346Z,62.83
2017-12-10T04:53:38.800Z,62.20
2017-12-10T04:56:06.264Z,62.96
2017-12-10T04:58:33.759Z,63.32
2017-12-10T05:01:01.220Z,63.16
2017-12-10T05:03:28.671Z,63.80
2017-12-10T05:05:56.189Z,64.05
2017-12-10T05:08:23.795Z,64.40
2017-12-10T05:10:51.251Z,64.64
2017-12-10T05:13:18.722Z,64.72
2017-12-10T05:15:46.180Z,64.15
2017-12-10T05:18:13.653Z,64.50
2017-12-10T05:20:41.147Z,64.48
2017-12-10T05:23:08.595Z,64.92
2017-12-10T05:25:36.075Z,65.92
2017-12-10T05:28:03.540Z,66.20
2017-12-10T05:30:31.068Z,66.35
2017-12-10T05:32:58.547Z,66.53
2017-12-10T05:35:26.037Z,66.73
2017-12-10T05:37:53.490Z,67.20
2017-12-10T05:40:20.980Z,67.76
2017-12-10T05:42:48.465Z,68.14
2017-12-10T05:45:16.176Z,68.44
2017-12-10T05:47:43.678Z,68.78
2017-12-10T05:50:11.136Z,69.38
2017-12-10T05:52:38.615Z,69.86
2017-12-10T05:55:06.138Z,70.29
2017-12-10T05:57:33.595Z,70.43
2017-12-10T06:00:01.040Z,69.85
2017-12-10T06:02:28.504Z,67.93
2017-12-10T06:04:55.968Z,67.85
2017-12-10T06:07:23.444Z,68.20
2017-12-10T06:09:50.906Z,68.16
2017-12-10T06:12:18.356Z,67.82
2017-12-10T06:14:45.829Z,68.05
2017-12-10T06:17:13.294Z,68.08
2017-12-10T06:19:40.731Z,67.88
2017-12-10T06:22:08.180Z,67.46
2017-12-10T06:24:35.626Z,67.48
2017-12-10T06:27:03.090Z,67.54
2017-12-10T06:29:30.573Z,67.54
2017-12-10T06:31:58.099Z,67.81
2017-12-10T06:34:25.559Z,67.94
2017-12-10T06:36:53.014Z,66.99
2017-12-10T06:39:20.455Z,66.83
2017-12-10T06:41:47.938Z,66.47
2017-12-10T06:44:15.453Z,66.09
2017-12-10T06:46:42.924Z,66.33
2017-12-10T06:49:10.455Z,66.39
2017-12-10T06:51:38.025Z,66.08
2017-12-10T06:54:05.473Z,65.92
2017-12-10T06:56:33.106Z,65.89
2017-12-10T06:59:00.802Z,65.90
2017-12-10T07:01:28.313Z,66.78
2017-12-10T07:03:55.776Z,67.17
2017-12-10T07:06:23.255Z,67.38
2017-12-10T07:08:50.711Z,67.45
2017-12-10T07:11:18.154Z,67.42
2017-12-10T07:13:45.617Z,68.79
2017-12-10T07:16:13.249Z,69.48
2017-12-10T07:18:40.904Z,69.52
2017-12-10T07:21:08.394Z,69.43
2017-12-10T07:23:35.836Z,69.55
2017-12-10T07:26:03.322Z,69.49
2017-12-10T07:28:30.962Z,69.11
2017-12-10T07:30:58.464Z,68.83
2017-12-10T07:33:25.915Z,68.74
2017-12-10T07:35:53.379Z,68.62
2017-12-10T07:38:20.883Z,68.54
2017-12-10T07:40:48.362Z,68.39
2017-12-10T07:43:15.828Z,68.16
2017-12-10T07:45:43.437Z,68.21
2017-12-10T07:48:10.925Z,68.00
2017-12-10T07:50:38.373Z,66.33
2017-12-10T07:53:05.829Z,64.87
2017-12-10T07:55:33.312Z,64.69
2017-12-10T07:58:00.814Z,62.95
2017-12-10T08:00:28.409Z,62.55
2017-12-10T08:02:55.968Z,62.36
2017-12-10T08:05:23.431Z,62.65
2017-12-10T08:07:50.883Z,62.29
2017-12-10T08:10:18.369Z,62.18
2017-12-10T08:12:45.876Z,62.03
2017-12-10T08:15:13.678Z,61.94
2017-12-10T08:17:41.191Z,62.26
2017-12-10T08:20:08.696Z,62.34
2017-12-10T08:22:36.174Z,62.76
2017-12-10T08:25:03.656Z,62.08
2017-12-10T08:27:31.104Z,61.78
2017-12-10T08:29:58.558Z,60.83
2017-12-10T08:32:26.051Z,60.47
2017-12-10T08:34:53.519Z,60.28
2017-12-10T08:37:20.989Z,59.98
2017-12-10T08:39:48.452Z,59.74
2017-12-10T08:42:15.928Z,59.85
2017-12-10T08:44:43.400Z,59.74
2017-12-10T08:47:10.957Z,59.76
2017-12-10T08:49:38.440Z,60.00
2017-12-10T08:52:05.903Z,59.21
2017-12-10T08:54:33.384Z,59.56
2017-12-10T08:57:00.847Z,59.47
2017-12-10T08:59:28.313Z,58.86
2017-12-10T09:01:55.776Z,58.98
2017-12-10T09:04:23.225Z,58.76
2017-12-10T09:06:50.681Z,59.07
2017-12-10T09:09:18.171Z,59.19
2017-12-10T09:11:45.630Z,59.39
2017-12-10T09:14:13.293Z,59.66
2017-12-10T09:16:40.765Z,59.24
2017-12-10T09:19:08.234Z,59.40
2017-12-10T09:21:35.719Z,59.36
2017-12-10T09:24:03.201Z,59.64
2017-12-10T09:26:30.899Z,59.40
2017-12-10T09:28:58.375Z,59.31
2017-12-10T09:31:25.871Z,58.69
2017-12-10T09:33:53.371Z,57.44
2017-12-10T09:36:20.828Z,57.59
2017-12-10T09:38:48.286Z,57.56
2017-12-10T09:41:15.796Z,57.34
2017-12-10T09:43:43.265Z,57.34
2017-12-10T09:46:10.726Z,57.43
2017-12-10T09:48:38.230Z,57.42
2017-12-10T09:51:05.755Z,57.90
2017-12-10T09:53:33.280Z,57.84
2017-12-10T09:56:00.731Z,57.35
2017-12-10T09:58:28.214Z,56.41
2017-12-10T10:00:55.658Z,55.86
2017-12-10T10:03:23.135Z,55.79
2017-12-10T10:05:50.631Z,55.20
2017-12-10T10:08:18.084Z,54.90
2017-12-10T10:10:45.548Z,53.92
2017-12-10T10:13:13.022Z,53.24
2017-12-10T10:15:40.492Z,52.98
2017-12-10T10:18:07.993Z,51.95
2017-12-10T10:20:35.509Z,51.50
2017-12-10T10:23:02.983Z,50.31
2017-12-10T10:25:30.468Z,51.00
2017-12-10T10:27:57.920Z,51.24
2017-12-10T10:30:25.579Z,49.16
2017-12-10T10:32:53.032Z,46.34
2017-12-10T10:35:20.507Z,45.77
2017-12-10T10:37:48.006Z,45.87
2017-12-10T10:40:15.746Z,45.75
2017-12-10T10:42:43.439Z,46.14
2017-12-10T10:45:10.907Z,45.90
2017-12-10T10:47:38.349Z,46.35
2017-12-10T10:50:05.828Z,46.60
2017-12-10T10:52:33.556Z,46.10
2017-12-10T10:55:01.055Z,45.89
2017-12-10T10:57:28.495Z,45.42
2017-12-10T10:59:55.962Z,45.47
2017-12-10T11:02:23.425Z,44.82
2017-12-10T11:04:50.859Z,44.45
2017-12-10T11:07:18.339Z,44.39
2017-12-10T11:09:45.817Z,44.33
2017-12-10T11:12:13.299Z,44.31
2017-12-10T11:14:40.755Z,44.44
2017-12-10T11:17:08.206Z,43.98
2017-12-10T11:19:35.709Z,44.30
2017-12-10T11:22:03.155Z,44.09
2017-12-10T11:24:30.611Z,43.52
2017-12-10T11:26:58.155Z,43.56
2017-12-10T11:29:26.030Z,43.61
2017-12-10T11:31:53.835Z,44.24
2017-12-10T11:34:21.336Z,44.21
2017-12-10T11:36:48.805Z,44.66
2017-12-10T11:39:16.635Z,44.65
2017-12-10T11:41:44.120Z,44.98
2017-12-10T11:44:11.662Z,45.31
2017-12-10T11:46:39.139Z,45.61
2017-12-10T11:49:06.674Z,46.04
2017-12-10T11:51:34.139Z,46.42
2017-12-10T11:54:01.625Z,46.11
2017-12-10T11:56:29.265Z,46.14
2017-12-10T11:58:56.704Z,46.42
2017-12-10T12:01:24.178Z,46.27
2017-12-10T12:03:51.679Z,46.41
2017-12-10T12:06:19.181Z,46.00
2017-12-10T12:08:46.640Z,46.13
2017-12-10T12:11:14.091Z,46.14
2017-12-10T12:13:41.578Z,45.89
2017-12-10T12:16:09.039Z,44.94
2017-12-10T12:18:36.510Z,45.59
2017-12-10T12:21:04.009Z,45.38
2017-12-10T12:23:31.457Z,45.69
2017-12-10T12:25:58.896Z,46.22
2017-12-10T12:28:26.350Z,46.14
2017-12-10T12:30:53.797Z,46.51
2017-12-10T12:33:21.316Z,47.08
2017-12-10T12:35:48.838Z,46.95
2017-12-10T12:38:16.435Z,47.13
2017-12-10T12:40:43.899Z,47.09
2017-12-10T12:43:11.355Z,47.07
2017-12-10T12:45:38.830Z,46.93
2017-12-10T12:48:06.283Z,46.44
2017-12-10T12:50:35.223Z,46.83
2017-12-10T12:53:02.751Z,47.17
2017-12-10T12:55:30.210Z,47.80
2017-12-10T12:57:57.687Z,48.11
2017-12-10T13:00:25.239Z,47.94
2017-12-10T13:02:52.692Z,48.28
2017-12-10T13:05:20.179Z,48.62
2017-12-10T13:07:47.647Z,48.22
2017-12-10T13:10:15.328Z,48.28
2017-12-10T13:12:43.019Z,48.47
2017-12-10T13:15:10.476Z,48.39
2017-12-10T13:17:37.975Z,48.76
2017-12-10T13:20:05.485Z,49.34
2017-12-10T13:22:33.225Z,49.30
2017-12-10T13:25:00.695Z,49.76
2017-12-10T13:27:28.184Z,49.75
2017-12-10T13:29:55.610Z,49.70
2017-12-10T13:32:23.292Z,50.14
2017-12-10T13:34:50.902Z,49.88
2017-12-10T13:37:18.347Z,50.19
2017-12-10T13:39:45.815Z,50.02
2017-12-10T13:42:13.255Z,50.06
2017-12-10T13:44:40.702Z,50.18
2017-12-10T13:47:08.171Z,50.27
2017-12-10T13:49:35.628Z,50.72
2017-12-10T13:52:03.085Z,50.68
2017-12-10T13:54:30.579Z,51.31
2017-12-10T13:56:58.058Z,51.75
2017-12-10T13:59:25.488Z,51.94
2017-12-10T14:01:53.004Z,52.37
2017-12-10T14:04:20.452Z,52.30
2017-12-10T14:06:47.943Z,52.62
2017-12-10T14:09:15.712Z,53.33
2017-12-10T14:11:43.166Z,53.54
2017-12-10T14:14:10.653Z,53.63
2017-12-10T14:16:38.227Z,53.93
2017-12-10T14:19:05.667Z,54.01
2017-12-10T14:21:33.137Z,54.18
2017-12-10T14:24:00.611Z,54.66
2017-12-10T14:26:28.052Z,55.10
2017-12-10T14:28:55.519Z,55.92
2017-12-10T14:31:23.444Z,55.90
2017-12-10T14:33:50.984Z,56.32
2017-12-10T14:36:18.460Z,56.35
2017-12-10T14:38:45.948Z,56.93
2017-12-10T14:41:13.410Z,56.97
2017-12-10T14:43:40.869Z,57.15
2017-12-10T14:46:08.358Z,57.21
2017-12-10T14:48:35.807Z,57.40
2017-12-10T14:51:03.310Z,57.56
2017-12-10T14:53:30.755Z,57.61
2017-12-10T14:55:58.248Z,57.78
2017-12-10T14:58:25.714Z,57.47
2017-12-10T15:00:53.199Z,57.41
2017-12-10T15:03:20.976Z,57.52
2017-12-10T15:05:48.464Z,57.50
2017-12-10T15:08:16.348Z,57.90
2017-12-10T15:10:43.837Z,58.52
2017-12-10T15:13:11.318Z,59.06
2017-12-10T15:15:38.854Z,59.41
2017-12-10T15:18:06.316Z,59.63
2017-12-10T15:20:34.181Z,60.02
2017-12-10T15:23:01.696Z,59.96
2017-12-10T15:25:29.178Z,60.07
2017-12-10T15:27:56.619Z,59.91
2017-12-10T15:30:24.228Z,59.94
2017-12-10T15:32:51.734Z,59.59
2017-12-10T15:35:19.189Z,59.60
2017-12-10T15:37:47.531Z,59.90
2017-12-10T15:40:15.322Z,60.12
2017-12-10T15:42:42.902Z,59.90
2017-12-10T15:45:10.378Z,59.45
2017-12-10T15:47:37.852Z,59.29
2017-12-10T15:50:05.312Z,58.21
2017-12-10T15:52:32.859Z,58.38
2017-12-10T15:55:00.365Z,58.21
2017-12-10T15:57:27.815Z,57.95
2017-12-10T15:59:55.282Z,57.78
2017-12-10T16:02:22.759Z,57.76
2017-12-10T16:04:50.241Z,57.32
2017-12-10T16:07:17.720Z,57.28
2017-12-10T16:09:45.256Z,56.96
2017-12-10T16:12:12.739Z,57.36
2017-12-10T16:14:40.223Z,57.33
2017-12-10T16:17:07.761Z,57.40
2017-12-10T16:19:35.235Z,57.40
2017-12-10T16:22:02.720Z,57.35
2017-12-10T16:24:30.296Z,57.51
2017-12-10T16:26:57.771Z,57.30
2017-12-10T16:29:25.267Z,57.58
2017-12-10T16:31:52.741Z,57.38
2017-12-10T16:34:20.551Z,57.44
2017-12-10T16:36:48.287Z,57.43
2017-12-10T16:39:16.380Z,57.32
2017-12-10T16:41:43.903Z,57.34
2017-12-10T16:44:12.403Z,57.61
2017-12-10T16:46:40.098Z,57.44
2017-12-10T16:49:07.675Z,57.63
2017-12-10T16:51:35.151Z,57.86
2017-12-10T16:54:02.702Z,58.10
2017-12-10T16:56:31.342Z,57.76
2017-12-10T16:59:00.060Z,58.11
2017-12-10T17:01:31.376Z,57.42
2017-12-10T17:03:58.934Z,57.42
2017-12-10T17:06:26.810Z,57.05
2017-12-10T17:08:54.296Z,56.69
2017-12-10T17:11:21.771Z,55.91
2017-12-10T17:13:49.269Z,56.00
2017-12-10T17:16:18.144Z,56.13
2017-12-10T17:18:46.014Z,56.14
2017-12-10T17:21:13.697Z,56.24
2017-12-10T17:23:42.148Z,55.83
2017-12-10T17:26:09.668Z,55.95
2017-12-10T17:28:37.219Z,55.88
2017-12-10T17:31:04.658Z,55.31
2017-12-10T17:33:32.159Z,55.49
2017-12-10T17:35:59.603Z,55.78
2017-12-10T17:38:27.058Z,55.50
2017-12-10T17:40:54.594Z,55.41
2017-12-10T17:43:22.229Z,55.33
2017-12-10T17:45:49.735Z,55.93
2017-12-10T17:48:17.218Z,56.21
2017-12-10T17:50:44.680Z,56.46
2017-12-10T17:53:12.163Z,57.07
2017-12-10T17:55:39.675Z,58.21
2017-12-10T17:58:07.170Z,58.79
2017-12-10T18:00:34.638Z,58.79
2017-12-10T18:03:02.099Z,59.35
2017-12-10T18:05:29.570Z,59.94
2017-12-10T18:07:57.008Z,60.09
2017-12-10T18:10:24.494Z,60.53
2017-12-10T18:12:52.368Z,61.24
2017-12-10T18:15:19.861Z,61.86
2017-12-10T18:17:47.336Z,62.03
2017-12-10T18:20:15.133Z,62.56
2017-12-10T18:22:42.673Z,63.54
2017-12-10T18:25:10.148Z,63.73
2017-12-10T18:27:37.749Z,63.84
2017-12-10T18:30:05.232Z,63.32
2017-12-10T18:32:32.731Z,64.02
2017-12-10T18:35:00.243Z,64.32
2017-12-10T18:37:27.736Z,63.84
2017-12-10T18:39:55.232Z,64.42
2017-12-10T18:42:22.881Z,63.90
2017-12-10T18:44:50.498Z,64.48
2017-12-10T18:47:18.044Z,63.91
2017-12-10T18:49:45.523Z,63.78
2017-12-10T18:52:13.002Z,64.09
2017-12-10T18:54:40.519Z,63.01
2017-12-10T18:57:08.047Z,63.22
2017-12-10T18:59:35.512Z,63.53
2017-12-10T19:02:03.123Z,62.91
2017-12-10T19:04:30.639Z,62.13
2017-12-10T19:06:58.096Z,62.00
2017-12-10T19:09:25.655Z,62.24
2017-12-10T19:11:53.210Z,62.30
2017-12-10T19:14:21.595Z,62.08
2017-12-10T19:16:49.077Z,62.18
2017-12-10T19:19:17.060Z,62.05
2017-12-10T19:21:44.547Z,62.00
2017-12-10T19:24:12.103Z,62.09
2017-12-10T19:26:39.603Z,61.22
2017-12-10T19:29:08.328Z,61.33
2017-12-10T19:31:35.905Z,61.45
2017-12-10T19:34:03.605Z,60.75
2017-12-10T19:36:31.844Z,60.32
2017-12-10T19:38:59.303Z,60.27
2017-12-10T19:41:26.835Z,60.68
2017-12-10T19:43:54.390Z,60.76
2017-12-10T19:46:21.840Z,60.55
2017-12-10T19:48:49.320Z,60.29
2017-12-10T19:51:16.941Z,60.01
2017-12-10T19:53:44.632Z,59.88
2017-12-10T19:56:12.574Z,59.67
2017-12-10T19:58:40.286Z,59.26
2017-12-10T20:01:07.926Z,59.18
2017-12-10T20:03:35.526Z,58.67
2017-12-10T20:06:03.110Z,58.93
2017-12-10T20:08:30.935Z,58.70
2017-12-10T20:10:58.432Z,58.33
2017-12-10T20:13:25.916Z,58.22
2017-12-10T20:15:53.510Z,58.23
2017-12-10T20:18:21.121Z,58.77
2017-12-10T20:20:48.652Z,58.23
2017-12-10T20:23:16.183Z,57.68
2017-12-10T20:25:43.706Z,57.76
2017-12-10T20:28:11.261Z,58.06
2017-12-10T20:30:38.722Z,57.59
2017-12-10T20:33:06.200Z,57.52
2017-12-10T20:35:33.778Z,57.74
2017-12-10T20:38:01.312Z,56.67
2017-12-10T20:40:28.858Z,56.30
2017-12-10T20:42:56.323Z,55.19
2017-12-10T20:45:23.822Z,54.82
2017-12-10T20:47:51.383Z,53.13
2017-12-10T20:50:18.890Z,52.91
2017-12-10T20:52:46.721Z,53.09
2017-12-10T20:55:14.184Z,52.57
2017-12-10T20:57:41.671Z,52.29
2017-12-10T21:00:09.179Z,52.18
2017-12-10T21:02:36.632Z,51.92
2017-12-10T21:05:04.150Z,51.72
2017-12-10T21:07:31.659Z,51.34
2017-12-10T21:09:59.130Z,50.78
2017-12-10T21:12:26.831Z,50.86
2017-12-10T21:14:54.298Z,50.37
2017-12-10T21:17:21.815Z,50.38
2017-12-10T21:19:49.351Z,50.39
2017-12-10T21:22:16.827Z,50.81
2017-12-10T21:24:44.585Z,51.07
2017-12-10T21:27:12.069Z,50.64
2017-12-10T21:29:39.548Z,50.84
2017-12-10T21:32:07.016Z,51.26
2017-12-10T21:34:34.569Z,51.27
2017-12-10T21:37:02.024Z,51.70
2017-12-10T21:39:29.496Z,52.25
2017-12-10T21:41:56.969Z,52.53
2017-12-10T21:44:24.467Z,52.97
2017-12-10T21:46:51.930Z,53.29
2017-12-10T21:49:19.393Z,53.69
2017-12-10T21:51:46.884Z,53.71
2017-12-10T21:54:14.345Z,54.04
2017-12-10T21:56:41.806Z,54.30
2017-12-10T21:59:09.275Z,54.64
2017-12-10T22:01:36.732Z,55.21
2017-12-10T22:04:04.208Z,55.66
2017-12-10T22:06:31.723Z,55.90
2017-12-10T22:08:59.198Z,56.02
2017-12-10T22:11:26.653Z,56.57
2017-12-10T22:13:54.123Z,57.30
2017-12-10T22:16:21.586Z,57.52
2017-12-10T22:18:49.408Z,57.98
2017-12-10T22:21:16.871Z,59.19
2017-12-10T22:23:44.339Z,60.21
2017-12-10T22:26:11.820Z,61.35
2017-12-10T22:28:39.327Z,62.73
2017-12-10T22:31:06.811Z,63.40
2017-12-10T22:33:34.351Z,64.18
2017-12-10T22:36:01.822Z,64.12
2017-12-10T22:38:29.554Z,64.62
2017-12-10T22:40:56.997Z,65.17
2017-12-10T22:43:24.472Z,65.44
2017-12-10T22:45:51.932Z,65.80
2017-12-10T22:48:19.388Z,65.79
2017-12-10T22:50:46.892Z,65.77
2017-12-10T22:53:14.353Z,65.49
2017-12-10T22:55:41.794Z,65.65
2017-12-10T22:58:09.250Z,64.33
2017-12-10T23:00:36.792Z,64.06
2017-12-10T23:03:04.375Z,64.31
2017-12-10T23:05:31.827Z,64.86
2017-12-10T23:07:59.255Z,65.45
2017-12-10T23:10:26.694Z,65.64
2017-12-10T23:12:54.373Z,65.96
2017-12-10T23:15:21.892Z,66.20
2017-12-10T23:17:49.348Z,66.38
2017-12-10T23:20:25.404Z,66.26
2017-12-10T23:22:52.867Z,66.73
2017-12-10T23:25:20.310Z,66.91
2017-12-10T23:27:47.770Z,66.79
2017-12-10T23:30:15.325Z,66.88
2017-12-10T23:32:42.792Z,66.68
2017-12-10T23:35:10.251Z,66.53
2017-12-10T23:37:37.767Z,66.76
2017-12-10T23:40:05.254Z,66.97
2017-12-10T23:42:33.291Z,67.08
2017-12-10T23:45:00.752Z,67.02
2017-12-10T23:47:28.208Z,67.40
2017-12-10T23:49:56.583Z,67.79
2017-12-10T23:52:24.196Z,67.51
2017-12-10T23:54:51.641Z,67.40
2017-12-10T23:57:19.089Z,67.44
2017-12-10T23:59:46.551Z,67.57
